Aviation Digital Data Service (ADDS)

Output produced by METARs form (1738 UTC 16 June 2019)
found at http://www.aviationweather.gov/metar/data/
 
METAR text: RJNY 161647Z 27010KT 9999 FEW020 BKN/// 18/12 Q1002 RMK 1CU020 A2959
Conditions at: RJNY (SHIZUHAMA (JASDF, JP) observed 1647 UTC 16 June 2019
Temperature: 18.0°C (64°F)
Dewpoint: 12.0°C (54°F) [RH = 68%]
Pressure (altimeter): 29.59 inches Hg (1002.0 mb)
Winds: from the W (270 degrees) at 12 MPH (10 knots; 5.1 m/s)
Visibility: 6 or more miles (10+ km)
Ceiling: at least 12,000 feet AGL
Clouds: few clouds at 2000 feet AGL
Weather: no significant weather observed at this time

METAR text: RJNY 161508Z 25018G28KT 9999 FEW020 SCT/// 19/12 Q1002 RMK 1CU020 A2960
Conditions at: RJNY (SHIZUHAMA (JASDF, JP) observed 1508 UTC 16 June 2019
Temperature: 19.0°C (66°F)
Dewpoint: 12.0°C (54°F) [RH = 64%]
Pressure (altimeter): 29.59 inches Hg (1002.0 mb)
Winds: from the WSW (250 degrees) at 21 MPH (18 knots; 9.3 m/s)
gusting to 32 MPH (28 knots; 14.4 m/s)
Visibility: 6 or more miles (10+ km)
Ceiling: at least 12,000 feet AGL
Clouds: few clouds at 2000 feet AGL
Weather: no significant weather observed at this time

METAR text: RJNY 161349Z 25018G28KT 9999 FEW020 19/13 Q1002 RMK 1CU020 A2960
Conditions at: RJNY (SHIZUHAMA (JASDF, JP) observed 1349 UTC 16 June 2019
Temperature: 19.0°C (66°F)
Dewpoint: 13.0°C (55°F) [RH = 68%]
Pressure (altimeter): 29.59 inches Hg (1002.0 mb)
Winds: from the WSW (250 degrees) at 21 MPH (18 knots; 9.3 m/s)
gusting to 32 MPH (28 knots; 14.4 m/s)
Visibility: 6 or more miles (10+ km)
Ceiling: at least 12,000 feet AGL
Clouds: few clouds at 2000 feet AGL
Weather: no significant weather observed at this time

METAR text: RJNY 152223Z 26021G33KT 9999 FEW020 22/16 Q0992 RMK 1CU020 A2931
Conditions at: RJNY (SHIZUHAMA (JASDF, JP) observed 2223 UTC 15 June 2019
Temperature: 22.0°C (72°F)
Dewpoint: 16.0°C (61°F) [RH = 69%]
Pressure (altimeter): 29.29 inches Hg (992.0 mb)
Winds: from the W (260 degrees) at 24 MPH (21 knots; 10.8 m/s)
gusting to 38 MPH (33 knots; 17.0 m/s)
Visibility: 6 or more miles (10+ km)
Ceiling: at least 12,000 feet AGL
Clouds: few clouds at 2000 feet AGL
Weather: no significant weather observed at this time

METAR text: RJNY 152002Z 25018G28KT 9999 FEW015 19/16 Q0991 RMK 1CU015 A2926
Conditions at: RJNY (SHIZUHAMA (JASDF, JP) observed 2002 UTC 15 June 2019
Temperature: 19.0°C (66°F)
Dewpoint: 16.0°C (61°F) [RH = 83%]
Pressure (altimeter): 29.26 inches Hg (991.0 mb)
Winds: from the WSW (250 degrees) at 21 MPH (18 knots; 9.3 m/s)
gusting to 32 MPH (28 knots; 14.4 m/s)
Visibility: 6 or more miles (10+ km)
Ceiling: at least 12,000 feet AGL
Clouds: few clouds at 1500 feet AGL
Weather: no significant weather observed at this time

METAR text: RJNY 151924Z 25017G27KT 9999 FEW015 19/16 Q0990 RMK 1CU015 A2924
Conditions at: RJNY (SHIZUHAMA (JASDF, JP) observed 1924 UTC 15 June 2019
Temperature: 19.0°C (66°F)
Dewpoint: 16.0°C (61°F) [RH = 83%]
Pressure (altimeter): 29.23 inches Hg (990.0 mb)
Winds: from the WSW (250 degrees) at 20 MPH (17 knots; 8.7 m/s)
gusting to 31 MPH (27 knots; 13.9 m/s)
Visibility: 6 or more miles (10+ km)
Ceiling: at least 12,000 feet AGL
Clouds: few clouds at 1500 feet AGL
Weather: no significant weather observed at this time

METAR text: RJNY 151749Z 26023G33KT 9999 FEW015 SCT080 19/17 Q0988 RMK 1CU015 4AC080 A2919
Conditions at: RJNY (SHIZUHAMA (JASDF, JP) observed 1749 UTC 15 June 2019
Temperature: 19.0°C (66°F)
Dewpoint: 17.0°C (63°F) [RH = 88%]
Pressure (altimeter): 29.17 inches Hg (988.0 mb)
Winds: from the W (260 degrees) at 26 MPH (23 knots; 11.8 m/s)
gusting to 38 MPH (33 knots; 17.0 m/s)
Visibility: 6 or more miles (10+ km)
Ceiling: at least 12,000 feet AGL
Clouds: few clouds at 1500 feet AGL
scattered clouds at 8000 feet AGL
Weather: no significant weather observed at this time

METAR text: RJNY 151729Z 25021G33KT 9999 -SHRA FEW015 SCT030 BKN080 19/18 Q0988 RMK 1CU015 3CU030 5AC080 A2919
Conditions at: RJNY (SHIZUHAMA (JASDF, JP) observed 1729 UTC 15 June 2019
Temperature: 19.0°C (66°F)
Dewpoint: 18.0°C (64°F) [RH = 94%]
Pressure (altimeter): 29.17 inches Hg (988.0 mb)
Winds: from the WSW (250 degrees) at 24 MPH (21 knots; 10.8 m/s)
gusting to 38 MPH (33 knots; 17.0 m/s)
Visibility: 6 or more miles (10+ km)
Ceiling: 8000 feet AGL
Clouds: few clouds at 1500 feet AGL
scattered clouds at 3000 feet AGL
broken clouds at 8000 feet AGL
Weather: -SHRA  (light rain showers)

METAR text: RJNY 151713Z 25020KT 9999 -SHRA FEW015 SCT030 BKN080 19/18 Q0988 RMK 2CU015 4CU030 5AC080 A2918
Conditions at: RJNY (SHIZUHAMA (JASDF, JP) observed 1713 UTC 15 June 2019
Temperature: 19.0°C (66°F)
Dewpoint: 18.0°C (64°F) [RH = 94%]
Pressure (altimeter): 29.17 inches Hg (988.0 mb)
Winds: from the WSW (250 degrees) at 23 MPH (20 knots; 10.3 m/s)
Visibility: 6 or more miles (10+ km)
Ceiling: 8000 feet AGL
Clouds: few clouds at 1500 feet AGL
scattered clouds at 3000 feet AGL
broken clouds at 8000 feet AGL
Weather: -SHRA  (light rain showers)

METAR text: RJNY 151644Z 26015G25KT 9999 FEW005 SCT025 BKN080 20/19 Q0987 RERA RMK 1ST005 3CU025 6AC080 A2917
Conditions at: RJNY (SHIZUHAMA (JASDF, JP) observed 1644 UTC 15 June 2019
Temperature: 20.0°C (68°F)
Dewpoint: 19.0°C (66°F) [RH = 94%]
Pressure (altimeter): 29.14 inches Hg (987.0 mb)
Winds: from the W (260 degrees) at 17 MPH (15 knots; 7.7 m/s)
gusting to 29 MPH (25 knots; 12.9 m/s)
Visibility: 6 or more miles (10+ km)
Ceiling: 8000 feet AGL
Clouds: few clouds at 500 feet AGL
scattered clouds at 2500 feet AGL
broken clouds at 8000 feet AGL
Weather: no significant weather observed at this time

METAR text: RJNY 151631Z 27011KT 6000 -SHRA FEW005 SCT015 BKN025 20/19 Q0987 RMK 1ST005 4CU015 6CU025 A2916 VIS NE-SE 5KM BR
Conditions at: RJNY (SHIZUHAMA (JASDF, JP) observed 1631 UTC 15 June 2019
Temperature: 20.0°C (68°F)
Dewpoint: 19.0°C (66°F) [RH = 94%]
Pressure (altimeter): 29.14 inches Hg (987.0 mb)
Winds: from the W (270 degrees) at 13 MPH (11 knots; 5.7 m/s)
Visibility: 4 miles ( 6 km)
Ceiling: 2500 feet AGL
Clouds: few clouds at 500 feet AGL
scattered clouds at 1500 feet AGL
broken clouds at 2500 feet AGL
Weather: -SHRA  (light rain showers)

METAR text: RJNY 151613Z 22013KT 3000 R09/1100VP1800D +SHRA BR FEW005 BKN015 BKN025 21/20 Q0987 RMK 2ST005 5CU015 7CU025 A2916 R1700 VIS SW-NW 3500M RI++
Conditions at: RJNY (SHIZUHAMA (JASDF, JP) observed 1613 UTC 15 June 2019
Temperature: 21.0°C (70°F)
Dewpoint: 20.0°C (68°F) [RH = 94%]
Pressure (altimeter): 29.14 inches Hg (987.0 mb)
Winds: from the SW (220 degrees) at 15 MPH (13 knots; 6.7 m/s)
Visibility: 1.86 miles (2.99 km)
Ceiling: 1500 feet AGL
Clouds: few clouds at 500 feet AGL
broken clouds at 1500 feet AGL
broken clouds at 2500 feet AGL
Weather: +SHRA BR  (heavy rain showers, mist)

METAR text: RJNY 151611Z 22012KT 4000 SHRA BR FEW005 SCT015 BKN025 21/19 Q0987 RMK 2ST005 3CU015 6CU025 A2917 VIS SW-NW 3000M
Conditions at: RJNY (SHIZUHAMA (JASDF, JP) observed 1611 UTC 15 June 2019
Temperature: 21.0°C (70°F)
Dewpoint: 19.0°C (66°F) [RH = 88%]
Pressure (altimeter): 29.14 inches Hg (987.0 mb)
Winds: from the SW (220 degrees) at 14 MPH (12 knots; 6.2 m/s)
Visibility: 2.49 miles (4.01 km)
Ceiling: 2500 feet AGL
Clouds: few clouds at 500 feet AGL
scattered clouds at 1500 feet AGL
broken clouds at 2500 feet AGL
Weather: SHRA BR  (rain showers, mist)

METAR text: RJNY 151551Z 23009KT 9999 -SHRA FEW005 BKN025 BKN/// 21/19 Q0988 RMK 1ST005 5CU025 A2918 LIGHTNING E-SE
Conditions at: RJNY (SHIZUHAMA (JASDF, JP) observed 1551 UTC 15 June 2019
Temperature: 21.0°C (70°F)
Dewpoint: 19.0°C (66°F) [RH = 88%]
Pressure (altimeter): 29.17 inches Hg (988.0 mb)
Winds: from the SW (230 degrees) at 10 MPH (9 knots; 4.6 m/s)
Visibility: 6 or more miles (10+ km)
Ceiling: 2500 feet AGL
Clouds: few clouds at 500 feet AGL
broken clouds at 2500 feet AGL
Weather: -SHRA  (light rain showers)

METAR text: RJNY 151446Z COR 27005KT 240V310 8000 FEW005 SCT015 FEW020CB BKN030 20/19 Q0989 RETS RMK 1ST005 3CU015 1CB020 6CU030 A2921 CB NE-E LIGHTNING E
Conditions at: RJNY (SHIZUHAMA (JASDF, JP) observed 1446 UTC 15 June 2019
Temperature: 20.0°C (68°F)
Dewpoint: 19.0°C (66°F) [RH = 94%]
Pressure (altimeter): 29.20 inches Hg (989.0 mb)
Winds: from the W (270 degrees) at 6 MPH (5 knots; 2.6 m/s)
Visibility: 5 miles ( 8 km)
Ceiling: 3000 feet AGL
Clouds: few clouds at 500 feet AGL
scattered clouds at 1500 feet AGL
few clouds at 2000 feet AGL
broken clouds at 3000 feet AGL
Weather: no significant weather observed at this time

METAR text: RJNY 151430Z 20005KT 4000 -SHRA BR FEW005 SCT010 BKN015 FEW020CB 20/20 Q0989 RETS RMK 1ST005 3CU010 6CU015 1CB020 A2921 CB NE-SE LIGHTNING E-SE
Conditions at: RJNY (SHIZUHAMA (JASDF, JP) observed 1430 UTC 15 June 2019
Temperature: 20.0°C (68°F)
Dewpoint: 20.0°C (68°F) [RH = 100%]
Pressure (altimeter): 29.20 inches Hg (989.0 mb)
Winds: from the SSW (200 degrees) at 6 MPH (5 knots; 2.6 m/s)
Visibility: 2.49 miles (4.01 km)
Ceiling: 1500 feet AGL
Clouds: few clouds at 500 feet AGL
scattered clouds at 1000 feet AGL
broken clouds at 1500 feet AGL
few clouds at 2000 feet AGL
Weather: -SHRA BR  (light rain showers, mist)

METAR text: RJNY 151418Z 19006KT 140V230 4000 -TSRA BR FEW005 SCT010 BKN015 SCT020CB 20/20 Q0989 RMK 1ST005 3CU010 6CU015 3CB020 A2921 FBL TS 30KM NW MOV N
Conditions at: RJNY (SHIZUHAMA (JASDF, JP) observed 1418 UTC 15 June 2019
Temperature: 20.0°C (68°F)
Dewpoint: 20.0°C (68°F) [RH = 100%]
Pressure (altimeter): 29.20 inches Hg (989.0 mb)
Winds: from the S (190 degrees) at 7 MPH (6 knots; 3.1 m/s)
Visibility: 2.49 miles (4.01 km)
Ceiling: 1500 feet AGL
Clouds: few clouds at 500 feet AGL
scattered clouds at 1000 feet AGL
broken clouds at 1500 feet AGL
scattered clouds at 2000 feet AGL
Weather: -TSRA BR  (light rain associated with thunderstorm(s), mist)

METAR text: RJNY 151351Z 07005KT 030V110 2500 R09/0500VP1800D +TSRA BR FEW010 BKN015 BKN020CB 19/18 Q0989 RMK 2CU010 6CU015 6CB020 A2922 R1100 VIS SE-SW 2000M FBL TS 20KM NW MOV N RI++
Conditions at: RJNY (SHIZUHAMA (JASDF, JP) observed 1351 UTC 15 June 2019
Temperature: 19.0°C (66°F)
Dewpoint: 18.0°C (64°F) [RH = 94%]
Pressure (altimeter): 29.20 inches Hg (989.0 mb)
Winds: from the ENE (70 degrees) at 6 MPH (5 knots; 2.6 m/s)
Visibility: 1.55 miles (2.49 km)
Ceiling: 1500 feet AGL
Clouds: few clouds at 1000 feet AGL
broken clouds at 1500 feet AGL
broken clouds at 2000 feet AGL
Weather: +TSRA BR  (heavy rain associated with thunderstorm(s), mist)

METAR text: RJNY 151347Z 07004KT 030V110 3000 R09/0800VP1800D +TSRA BR FEW010 BKN015 BKN020CB 19/18 Q0989 RMK 2CU010 5CU015 5CB020 A2922 R1500 FBL TS 15KM W MOV N RI++
Conditions at: RJNY (SHIZUHAMA (JASDF, JP) observed 1347 UTC 15 June 2019
Temperature: 19.0°C (66°F)
Dewpoint: 18.0°C (64°F) [RH = 94%]
Pressure (altimeter): 29.20 inches Hg (989.0 mb)
Winds: from the ENE (70 degrees) at 5 MPH (4 knots; 2.1 m/s)
Visibility: 1.86 miles (2.99 km)
Ceiling: 1500 feet AGL
Clouds: few clouds at 1000 feet AGL
broken clouds at 1500 feet AGL
broken clouds at 2000 feet AGL
Weather: +TSRA BR  (heavy rain associated with thunderstorm(s), mist)

METAR text: RJNY 151345Z 06004KT 030V110 4000 R09/0800VP1800D +TSRA BR FEW010 BKN015 SCT020CB BKN030 19/18 Q0989 RMK 2CU010 5CU015 4CB020 6CU030 A2922 R1600 VIS SE-SW 3000M FBL TS 15KM W MOV N RI++
Conditions at: RJNY (SHIZUHAMA (JASDF, JP) observed 1345 UTC 15 June 2019
Temperature: 19.0°C (66°F)
Dewpoint: 18.0°C (64°F) [RH = 94%]
Pressure (altimeter): 29.20 inches Hg (989.0 mb)
Winds: from the ENE (60 degrees) at 5 MPH (4 knots; 2.1 m/s)
Visibility: 2.49 miles (4.01 km)
Ceiling: 1500 feet AGL
Clouds: few clouds at 1000 feet AGL
broken clouds at 1500 feet AGL
scattered clouds at 2000 feet AGL
broken clouds at 3000 feet AGL
Weather: +TSRA BR  (heavy rain associated with thunderstorm(s), mist)

METAR text: RJNY 151340Z 05004KT 010V100 6000 TSRA FEW010 BKN015 FEW020CB BKN030 19/18 Q0989 RMK 2CU010 5CU015 2CB020 6CU030 A2922 VIS SE-SW 5KM BR FBL TS 15KM S APCHG STN
Conditions at: RJNY (SHIZUHAMA (JASDF, JP) observed 1340 UTC 15 June 2019
Temperature: 19.0°C (66°F)
Dewpoint: 18.0°C (64°F) [RH = 94%]
Pressure (altimeter): 29.20 inches Hg (989.0 mb)
Winds: from the NE (50 degrees) at 5 MPH (4 knots; 2.1 m/s)
Visibility: 4 miles ( 6 km)
Ceiling: 1500 feet AGL
Clouds: few clouds at 1000 feet AGL
broken clouds at 1500 feet AGL
few clouds at 2000 feet AGL
broken clouds at 3000 feet AGL
Weather: TSRA  (rain associated with thunderstorm(s))

METAR text: RJNY 151335Z 05004KT 010V100 9000 -TSRA FEW010 BKN015 FEW020CB BKN030 19/18 Q0989 RMK 2CU010 5CU015 2CB020 6CU030 A2922 FBL TS 20KM S APCHG STN
Conditions at: RJNY (SHIZUHAMA (JASDF, JP) observed 1335 UTC 15 June 2019
Temperature: 19.0°C (66°F)
Dewpoint: 18.0°C (64°F) [RH = 94%]
Pressure (altimeter): 29.20 inches Hg (989.0 mb)
Winds: from the NE (50 degrees) at 5 MPH (4 knots; 2.1 m/s)
Visibility: 6 miles ( 9 km)
Ceiling: 1500 feet AGL
Clouds: few clouds at 1000 feet AGL
broken clouds at 1500 feet AGL
few clouds at 2000 feet AGL
broken clouds at 3000 feet AGL
Weather: -TSRA  (light rain associated with thunderstorm(s))

METAR text: RJNY 151329Z 04004KT 360V070 9999 -SHRA FEW010 BKN015 FEW020CB BKN030 19/18 Q0990 RMK 2CU010 5CU015 1CB020 6CU030 A2923 CB 30KM W MOV N
Conditions at: RJNY (SHIZUHAMA (JASDF, JP) observed 1329 UTC 15 June 2019
Temperature: 19.0°C (66°F)
Dewpoint: 18.0°C (64°F) [RH = 94%]
Pressure (altimeter): 29.23 inches Hg (990.0 mb)
Winds: from the NE (40 degrees) at 5 MPH (4 knots; 2.1 m/s)
Visibility: 6 or more miles (10+ km)
Ceiling: 1500 feet AGL
Clouds: few clouds at 1000 feet AGL
broken clouds at 1500 feet AGL
few clouds at 2000 feet AGL
broken clouds at 3000 feet AGL
Weather: -SHRA  (light rain showers)

METAR text: RJNY 151238Z 05004KT 010V090 9999 -SHRA FEW005 BKN030 BKN040 19/18 Q0991 RMK 1ST005 5CU030 6SC040 A2928 LIGHTNING SW-W
Conditions at: RJNY (SHIZUHAMA (JASDF, JP) observed 1238 UTC 15 June 2019
Temperature: 19.0°C (66°F)
Dewpoint: 18.0°C (64°F) [RH = 94%]
Pressure (altimeter): 29.26 inches Hg (991.0 mb)
Winds: from the NE (50 degrees) at 5 MPH (4 knots; 2.1 m/s)
Visibility: 6 or more miles (10+ km)
Ceiling: 3000 feet AGL
Clouds: few clouds at 500 feet AGL
broken clouds at 3000 feet AGL
broken clouds at 4000 feet AGL
Weather: -SHRA  (light rain showers)

METAR text: RJNY 151148Z 04005KT 360V070 9999 FEW005 SCT030 BKN040 19/18 Q0992 RMK 1ST005 4CU030 6SC040 A2931
Conditions at: RJNY (SHIZUHAMA (JASDF, JP) observed 1148 UTC 15 June 2019
Temperature: 19.0°C (66°F)
Dewpoint: 18.0°C (64°F) [RH = 94%]
Pressure (altimeter): 29.29 inches Hg (992.0 mb)
Winds: from the NE (40 degrees) at 6 MPH (5 knots; 2.6 m/s)
Visibility: 6 or more miles (10+ km)
Ceiling: 4000 feet AGL
Clouds: few clouds at 500 feet AGL
scattered clouds at 3000 feet AGL
broken clouds at 4000 feet AGL
Weather: no significant weather observed at this time

METAR text: RJNY 150752Z 05012G23KT 020V100 9999 -SHRA FEW005 BKN025 BKN045 19/17 Q0992 RMK 1ST005 7CU025 7SC045 A2931
Conditions at: RJNY (SHIZUHAMA (JASDF, JP) observed 0752 UTC 15 June 2019
Temperature: 19.0°C (66°F)
Dewpoint: 17.0°C (63°F) [RH = 88%]
Pressure (altimeter): 29.29 inches Hg (992.0 mb)
Winds: from the NE (50 degrees) at 14 MPH (12 knots; 6.2 m/s)
gusting to 26 MPH (23 knots; 11.8 m/s)
Visibility: 6 or more miles (10+ km)
Ceiling: 2500 feet AGL
Clouds: few clouds at 500 feet AGL
broken clouds at 2500 feet AGL
broken clouds at 4500 feet AGL
Weather: -SHRA  (light rain showers)